Latest Weather Observations for Richmond

IDQ60801

Issued at 8:52 pm EST Wednesday 19 September 2018 (issued every 10 minutes, with the page automatically refreshed every 10 minutes)

About weather observations | Map of weather stations | Latest weather observations for QLD | Other Formats
Station Details ID: 030161 Name: RICHMOND AIRPORT Lat: -20.70 Lon: 143.12 Height: 206.3 m
Data from the previous 72 hours. | See also: Recent months at Richmond
Date/Time
EST
Temp
°C
App
Temp
°C
Dew
Point
°C
Rel
Hum
%
Delta-T
°C
Wind Press
QNH
hPa
Press
MSL
hPa
Rain since
9am
mm
Dir  Spd
km/h
Gust
km/h
Spd
kts
Gust
kts
19/08:30pm 22.0 16.8 -5.8 15 11.3 SSE 13 17 7 9 1013.2 1012.2 0.0
19/08:00pm 24.7 19.4 -3.6 15 12.3 SSE 15 17 8 9 1013.0 1012.0 0.0
19/07:30pm 26.3 21.8 -3.3 14 13.1 SSE 11 13 6 7 1012.6 1011.6 0.0
19/07:00pm 27.4 22.6 -2.4 14 13.5 S 13 15 7 8 1012.3 1011.3 0.0
19/06:30pm 29.2 24.3 -3.1 12 14.7 S 13 15 7 8 1011.8 1010.8 0.0
19/06:00pm 31.9 27.1 -2.2 11 16.1 SSE 13 17 7 9 1011.5 1010.5 0.0
19/05:30pm 33.6 28.6 -0.9 11 16.8 S 15 20 8 11 1011.2 1010.2 0.0
19/05:00pm 34.0 28.7 -0.6 11 17.0 S 17 26 9 14 1011.1 1010.1 0.0
19/04:30pm 33.9 28.6 -0.7 11 16.9 S 17 32 9 17 1011.0 1010.0 0.0
19/04:00pm 34.7 31.0 -0.1 11 17.3 WSW 9 17 5 9 1010.9 1009.9 0.0
19/03:30pm 34.5 29.4 1.0 12 16.9 SW 17 33 9 18 1011.0 1010.0 0.0
19/03:00pm 34.1 29.4 0.7 12 16.8 SW 15 33 8 18 1011.2 1010.2 0.0
19/02:30pm 34.2 30.2 0.8 12 16.8 SE 11 20 6 11 1011.7 1010.7 0.0
19/02:00pm 33.5 28.7 0.2 12 16.5 WSW 15 28 8 15 1012.2 1011.2 0.0
19/01:30pm 33.5 29.1 0.2 12 16.5 W 13 19 7 10 1012.6 1011.6 0.0
19/01:00pm 32.9 29.2 -0.2 12 16.2 SSE 9 17 5 9 1013.0 1012.0 0.0
19/12:30pm 32.8 28.6 1.8 14 15.7 SW 13 20 7 11 1013.4 1012.5 0.0
19/12:00pm 32.6 29.5 3.5 16 15.1 NNW 9 19 5 10 1014.0 1013.1 0.0
19/11:30am 31.5 28.3 5.1 19 14.0 NW 11 22 6 12 1014.7 1013.7 0.0
19/11:00am 30.7 27.1 8.4 25 12.4 NNW 17 26 9 14 1015.2 1014.2 0.0
19/10:30am 28.5 24.7 9.2 30 10.8 NW 19 24 10 13 1015.7 1014.7 0.0
19/10:00am 27.6 23.9 9.4 32 10.1 NNW 19 24 10 13 1016.0 1015.0 0.0
19/09:30am 26.2 22.9 9.5 35 9.3 N 17 22 9 12 1016.2 1015.2 0.0
19/09:00am 24.4 21.0 9.2 38 8.3 N 17 22 9 12 1016.4 1015.4 0.0
19/08:30am 22.8 20.3 9.6 43 7.2 N 13 19 7 10 1016.0 1015.0 0.0
19/08:00am 20.4 18.6 9.3 49 5.9 N 9 11 5 6 1015.6 1014.6 0.0
19/07:30am 17.4 15.5 6.9 50 5.3 NE 6 7 3 4 1015.5 1014.5 0.0
19/07:00am 13.7 12.2 2.9 48 4.9 CALM 0 0 0 0 1015.0 1014.0 0.0
19/06:30am 14.0 11.6 7.1 63 3.4 ENE 9 11 5 6 1014.1 1013.2 0.0
19/06:00am 14.6 13.2 3.4 47 5.1 CALM 0 0 0 0 1013.7 1012.8 0.0
19/05:30am 14.7 13.2 2.9 45 5.4 CALM 0 0 0 0 1013.4 1012.5 0.0
19/05:00am 16.6 13.6 7.5 55 4.6 NNE 13 15 7 8 1013.0 1012.0 0.0
19/04:30am 16.2 13.2 6.1 51 5.0 NNE 11 15 6 8 1012.7 1011.7 0.0
19/04:00am 17.2 13.8 5.8 47 5.6 NNE 13 17 7 9 1012.4 1011.4 0.0
19/03:30am 16.7 12.4 3.4 41 6.2 NNE 15 19 8 10 1012.4 1011.4 0.0
19/03:00am 16.1 11.8 -1.5 30 7.4 NE 11 13 6 7 1012.4 1011.4 0.0
19/02:30am 16.8 12.2 -3.9 24 8.3 NE 11 13 6 7 1012.4 1011.4 0.0
19/02:00am 17.7 13.0 -4.9 21 8.9 ENE 11 13 6 7 1012.6 1011.6 0.0
19/01:30am 17.5 13.4 -6.3 19 9.1 ENE 7 13 4 7 1012.9 1011.9 0.0
19/01:00am 19.1 14.0 -5.0 19 9.6 ENE 13 15 7 8 1013.3 1012.3 0.0
19/12:30am 17.5 11.7 -4.4 22 8.7 ENE 17 22 9 12 1013.3 1012.3 0.0
19/12:00am 17.3 13.0 -4.6 22 8.7 E 9 11 5 6 1013.2 1012.2 0.0
 
Date/Time
EST
Temp
°C
App
Temp
°C
Dew
Point
°C
Rel
Hum
%
Delta-T
°C
Wind Press
QNH
hPa
Press
MSL
hPa
Rain since
9am
mm
Dir  Spd
km/h
Gust
km/h
Spd
kts
Gust
kts
18/11:30pm 18.1 13.8 -5.2 20 9.2 ESE 9 11 5 6 1013.3 1012.3 0.0
18/11:00pm 20.5 17.2 -4.6 18 10.3 SSW 4 7 2 4 1013.1 1012.1 0.0
18/10:30pm 20.0 15.5 -6.5 16 10.4 SW 9 11 5 6 1012.8 1011.8 0.0
18/10:00pm 22.8 18.6 -4.3 16 11.4 SSE 9 13 5 7 1013.0 1012.0 0.0
18/09:30pm 22.6 18.3 -5.3 15 11.5 SSE 9 11 5 6 1012.9 1011.9 0.0
18/09:00pm 24.4 20.2 -3.9 15 12.2 SSW 9 11 5 6 1012.8 1011.8 0.0
18/08:30pm 23.0 18.3 -5.0 15 11.6 WSW 11 13 6 7 1012.7 1011.7 0.0
18/08:00pm 24.5 19.5 -4.7 14 12.4 SW 13 15 7 8 1012.4 1011.4 0.0
18/07:30pm 26.8 22.7 -2.9 14 13.3 SW 9 11 5 6 1012.3 1011.3 0.0
18/07:00pm 27.3 22.8 -3.5 13 13.7 SW 11 13 6 7 1012.1 1011.1 0.0
18/06:30pm 28.6 24.6 -2.5 13 14.2 WSW 9 13 5 7 1011.8 1010.8 0.0
18/06:00pm 31.2 26.9 -1.5 12 15.5 NW 11 13 6 7 1011.5 1010.5 0.0
18/05:30pm 32.9 29.0 -1.4 11 16.5 NW 9 15 5 8 1011.3 1010.3 0.0
18/05:00pm 33.4 28.8 -1.0 11 16.7 W 13 20 7 11 1011.2 1010.2 0.0
18/04:30pm 34.1 28.8 -0.5 11 17.0 WSW 17 28 9 15 1011.1 1010.1 0.0
18/04:00pm 33.8 29.6 -0.7 11 16.9 N 11 24 6 13 1011.2 1010.2 0.0
18/03:30pm 33.3 27.6 -1.1 11 16.6 WNW 19 26 10 14 1011.5 1010.5 0.0
18/03:00pm 33.6 30.0 0.3 12 16.5 NNE 9 17 5 9 1011.7 1010.7 0.0
18/02:30pm 33.8 28.3 0.5 12 16.6 WNW 19 28 10 15 1012.2 1011.2 0.0
18/02:00pm 34.0 28.9 0.6 12 16.7 WSW 17 37 9 20 1012.4 1011.4 0.0
18/01:30pm 33.6 28.6 1.4 13 16.3 NNW 17 30 9 16 1012.9 1011.9 0.0
18/01:00pm 33.0 29.6 2.0 14 15.8 NW 9 20 5 11 1013.5 1012.6 0.0
18/12:30pm 33.3 28.4 2.2 14 15.9 NW 17 24 9 13 1014.2 1013.3 0.0
18/12:00pm 32.4 28.4 5.1 18 14.5 NNW 15 32 8 17 1014.9 1013.9 0.0
18/11:30am 31.5 27.5 6.5 21 13.6 NNW 17 28 9 15 1015.7 1014.7 0.0
18/11:00am 30.6 26.8 7.7 24 12.6 NNW 17 24 9 13 1016.3 1015.3 0.0
18/10:30am 29.4 25.3 7.9 26 11.8 NNW 19 26 10 14 1016.6 1015.6 0.0
18/10:00am 27.6 23.8 9.0 31 10.3 N 19 26 10 14 1016.9 1015.9 0.0
18/09:30am 25.8 22.3 8.8 34 9.3 NNE 17 22 9 12 1017.1 1016.1 0.0
18/09:00am 23.1 19.7 6.0 33 8.8 NNE 13 17 7 9 1017.3 1016.3 0.0
18/08:30am 20.6 17.4 2.9 31 8.4 NE 9 13 5 7 1017.3 1016.3 0.0
18/08:00am 17.5 13.5 -2.2 26 8.2 NE 9 11 5 6 1017.0 1016.0 0.0
18/07:30am 15.2 11.5 -4.2 26 7.6 ENE 6 9 3 5 1016.8 1015.8 0.0
18/07:00am 12.1 8.2 -6.3 27 6.6 ENE 6 9 3 5 1016.4 1015.4 0.0
18/06:30am 10.7 6.1 -7.5 27 6.3 E 9 11 5 6 1016.1 1015.1 0.0
18/06:00am 12.3 7.8 -7.1 25 6.9 ESE 9 11 5 6 1015.5 1014.5 0.0
18/05:30am 12.4 8.4 -8.1 23 7.1 ESE 6 11 3 6 1015.1 1014.1 0.0
18/05:00am 13.1 6.9 -9.3 20 7.6 SE 17 20 9 11 1014.6 1013.6 0.0
18/04:30am 12.5 7.4 -9.2 21 7.3 SE 11 13 6 7 1014.5 1013.5 0.0
18/04:00am 12.2 6.7 -10.1 20 7.4 SSE 13 15 7 8 1014.3 1013.4 0.0
18/03:30am 12.5 7.8 -9.2 21 7.3 SSE 9 11 5 6 1014.5 1013.5 0.0
18/03:00am 11.6 6.5 -9.4 22 7.0 SSW 11 13 6 7 1014.7 1013.7 0.0
18/02:30am 14.3 9.3 -8.3 20 8.0 SE 11 13 6 7 1014.8 1013.8 0.0
18/02:00am 14.6 9.9 -8.7 19 8.2 SE 9 9 5 5 1014.8 1013.8 0.0
18/01:30am 15.1 10.4 -9.7 17 8.6 SE 9 11 5 6 1015.1 1014.1 0.0
18/01:00am 13.7 8.6 -8.8 20 7.8 SSE 11 13 6 7 1015.4 1014.4 0.0
18/12:30am 13.8 8.8 -8.7 20 7.8 SSE 11 11 6 6 1015.5 1014.5 0.0
18/12:00am 13.8 8.3 -9.4 19 7.9 SSE 13 15 7 8 1015.6 1014.6 0.0
 
Date/Time
EST
Temp
°C
App
Temp
°C
Dew
Point
°C
Rel
Hum
%
Delta-T
°C
Wind Press
QNH
hPa
Press
MSL
hPa
Rain since
9am
mm
Dir  Spd
km/h
Gust
km/h
Spd
kts
Gust
kts
17/11:30pm 14.8 9.3 -10.0 17 8.5 SSE 13 15 7 8 1015.4 1014.4 0.0
17/11:00pm 15.8 10.3 -9.9 16 8.9 SSE 13 15 7 8 1015.3 1014.3 0.0
17/10:30pm 17.3 11.0 -10.4 14 9.7 SSE 17 20 9 11 1015.1 1014.1 0.0
17/10:00pm 17.5 11.6 -10.3 14 9.8 SSE 15 17 8 9 1015.1 1014.1 0.0
17/09:30pm 17.2 11.3 -9.6 15 9.5 SSE 15 15 8 8 1015.0 1014.0 0.0
17/09:00pm 18.1 12.2 -9.8 14 10.0 SSE 15 19 8 10 1014.9 1013.9 0.0
17/08:30pm 19.1 13.3 -9.0 14 10.4 S 15 17 8 9 1014.7 1013.7 0.0
17/08:00pm 20.2 14.7 -9.1 13 10.9 S 13 13 7 7 1014.3 1013.4 0.0
17/07:30pm 22.3 17.3 -8.4 12 11.9 S 11 13 6 7 1014.1 1013.2 0.0
17/07:00pm 24.7 20.1 -7.7 11 13.0 SSE 9 13 5 7 1013.6 1012.7 0.0
17/06:30pm 26.6 22.6 -7.5 10 14.0 SE 6 9 3 5 1013.3 1012.3 0.0
17/06:00pm 28.4 25.7 -6.1 10 14.8 CALM 0 4 0 2 1013.1 1012.1 0.0
17/05:30pm 29.7 25.6 -6.5 9 15.5 SSE 7 11 4 6 1012.8 1011.8 0.0
17/05:00pm 30.5 25.9 -4.5 10 15.7 SSE 11 17 6 9 1012.6 1011.6 0.0
17/04:30pm 30.4 25.2 -6.0 9 15.9 ENE 13 22 7 12 1012.5 1011.5 0.0
17/04:00pm 30.1 25.0 -4.8 10 15.5 SSE 13 20 7 11 1012.7 1011.7 0.0
17/03:30pm 30.5 25.1 -4.5 10 15.7 SE 15 22 8 12 1012.9 1011.9 0.0
17/03:00pm 31.0 26.0 -4.1 10 15.9 SE 13 24 7 13 1013.3 1012.3 0.0
17/02:30pm 30.1 25.2 -3.6 11 15.3 ESE 13 22 7 12 1013.6 1012.7 0.0
17/02:00pm 29.6 24.6 -3.9 11 15.0 SSE 13 30 7 16 1014.0 1013.1 0.0
17/01:30pm 29.2 24.3 -3.1 12 14.7 ESE 13 22 7 12 1014.8 1013.8 0.0
17/01:00pm 28.0 23.1 -3.0 13 14.0 SE 13 30 7 16 1015.4 1014.4 0.0
17/12:30pm 27.6 22.3 -3.3 13 13.8 ESE 15 24 8 13 1015.9 1014.9 0.0
17/12:00pm 27.1 21.8 -3.7 13 13.6 SE 15 20 8 11 1016.4 1015.4 0.0
17/11:30am 25.4 20.1 -4.0 14 12.7 ESE 15 22 8 12 1017.0 1016.0 0.0
17/11:00am 24.9 19.5 -4.4 14 12.5 ESE 15 19 8 10 1017.4 1016.4 0.0
17/10:30am 23.4 17.6 -4.7 15 11.8 ESE 17 24 9 13 1017.9 1017.0 0.0
17/10:00am 22.4 15.6 -5.5 15 11.4 E 22 28 12 15 1018.2 1017.3 0.0
17/09:30am 21.8 15.4 -5.1 16 11.0 ESE 20 28 11 15 1018.2 1017.3 0.0
17/09:00am 19.5 13.2 -5.4 18 9.9 ESE 19 24 10 13 1018.2 1017.3 0.0
17/08:30am 16.5 10.0 -5.9 21 8.6 ESE 20 24 11 13 1018.2 1017.3 0.0
17/08:00am 14.2 8.3 -6.1 24 7.5 ESE 17 22 9 12 1018.0 1017.1 0.0
17/07:30am 12.0 6.7 -6.9 26 6.7 SE 13 17 7 9 1017.7 1016.8 0.0
17/07:00am 9.8 5.7 -6.9 30 5.7 SE 7 9 4 5 1017.5 1016.5 0.0
17/06:30am 8.7 3.8 -7.5 31 5.4 SE 11 15 6 8 1017.1 1016.1 0.0
17/06:00am 9.7 4.0 -7.9 28 5.9 SE 15 17 8 9 1016.9 1015.9 0.0
17/05:30am 10.3 4.6 -7.9 27 6.2 SSE 15 17 8 9 1016.7 1015.7 0.0
17/05:00am 10.3 4.6 -7.4 28 6.1 SSE 15 17 8 9 1016.5 1015.5 0.0
17/04:30am 10.5 5.2 -7.2 28 6.1 SSE 13 15 7 8 1016.3 1015.3 0.0
17/04:00am 12.1 6.8 -7.3 25 6.8 SE 13 15 7 8 1016.2 1015.2 0.0
17/03:30am 12.6 7.7 -6.9 25 7.0 SE 11 13 6 7 1016.1 1015.1 0.0
17/03:00am 13.4 7.7 -7.9 22 7.5 SE 15 17 8 9 1016.2 1015.2 0.0
17/02:30am 14.5 8.8 -7.5 21 7.9 SE 15 17 8 9 1016.3 1015.3 0.0
17/02:00am 14.7 8.6 -7.4 21 8.0 SE 17 19 9 10 1016.3 1015.3 0.0
17/01:30am 15.7 10.0 -7.8 19 8.5 SE 15 20 8 11 1016.4 1015.4 0.0
17/01:00am 16.4 10.4 -6.6 20 8.6 SE 17 22 9 12 1016.5 1015.5 0.0
17/12:30am 15.1 9.4 -7.0 21 8.1 SSE 15 17 8 9 1016.7 1015.7 0.0
17/12:00am 15.8 10.6 -6.5 21 8.3 SSE 13 15 7 8 1016.8 1015.8 0.0
 
Date/Time
EST
Temp
°C
App
Temp
°C
Dew
Point
°C
Rel
Hum
%
Delta-T
°C
Wind Press
QNH
hPa
Press
MSL
hPa
Rain since
9am
mm
Dir  Spd
km/h
Gust
km/h
Spd
kts
Gust
kts
16/11:30pm 17.2 11.6 -6.6 19 9.0 SSE 15 19 8 10 1016.9 1015.9 0.0
16/11:00pm 18.7 12.7 -6.8 17 9.8 SSE 17 22 9 12 1016.9 1015.9 0.0
16/10:30pm 20.0 13.1 -6.5 16 10.4 SSE 22 28 12 15 1016.8 1015.8 0.0
16/10:00pm 20.6 12.9 -6.1 16 10.6 SSE 26 33 14 18 1016.6 1015.6 0.0
16/09:30pm 21.0 14.1 -5.7 16 10.7 S 22 28 12 15 1016.6 1015.6 0.0
16/09:00pm 21.7 14.9 -5.2 16 11.0 S 22 28 12 15 1016.2 1015.2 0.0

Other Formats:

Comma delimited format used in spreadsheet applications
http://www.bom.gov.au/fwo/IDQ60801/IDQ60801.94341.axf

JavaScript Object Notation format (JSON) in row-major order
http://www.bom.gov.au/fwo/IDQ60801/IDQ60801.94341.json